sensor_id;sensor_type;location;lat;lon;timestamp;P1;durP1;ratioP1;P2;durP2;ratioP2
60851;SDS011;48553;50.766;2.900;2023-05-28T00:01:15;19.30;;;7.78;;
60851;SDS011;48553;50.766;2.900;2023-05-28T00:04:17;18.10;;;7.90;;
60851;SDS011;48553;50.766;2.900;2023-05-28T00:07:18;18.52;;;8.10;;
60851;SDS011;48553;50.766;2.900;2023-05-28T00:10:21;19.23;;;8.27;;
60851;SDS011;48553;50.766;2.900;2023-05-28T00:13:21;20.73;;;7.75;;
60851;SDS011;48553;50.766;2.900;2023-05-28T00:16:22;24.13;;;8.88;;
60851;SDS011;48553;50.766;2.900;2023-05-28T00:19:22;20.20;;;8.50;;
60851;SDS011;48553;50.766;2.900;2023-05-28T00:22:23;23.60;;;8.48;;
60851;SDS011;48553;50.766;2.900;2023-05-28T00:25:23;20.63;;;9.13;;
60851;SDS011;48553;50.766;2.900;2023-05-28T00:28:24;20.77;;;9.93;;
60851;SDS011;48553;50.766;2.900;2023-05-28T00:31:24;20.77;;;9.43;;
60851;SDS011;48553;50.766;2.900;2023-05-28T00:34:25;25.73;;;9.40;;
60851;SDS011;48553;50.766;2.900;2023-05-28T00:37:26;22.90;;;9.25;;
60851;SDS011;48553;50.766;2.900;2023-05-28T00:40:26;26.50;;;9.68;;
60851;SDS011;48553;50.766;2.900;2023-05-28T00:43:27;22.85;;;9.70;;
60851;SDS011;48553;50.766;2.900;2023-05-28T00:46:27;22.27;;;10.07;;
60851;SDS011;48553;50.766;2.900;2023-05-28T00:49:28;22.98;;;9.57;;
60851;SDS011;48553;50.766;2.900;2023-05-28T00:52:30;24.98;;;10.73;;
60851;SDS011;48553;50.766;2.900;2023-05-28T00:55:30;26.13;;;11.07;;
60851;SDS011;48553;50.766;2.900;2023-05-28T00:58:31;28.27;;;11.10;;
60851;SDS011;48553;50.766;2.900;2023-05-28T01:01:35;25.75;;;10.48;;
60851;SDS011;48553;50.766;2.900;2023-05-28T01:04:36;24.13;;;10.85;;
60851;SDS011;48553;50.766;2.900;2023-05-28T01:07:37;26.20;;;10.93;;
60851;SDS011;48553;50.766;2.900;2023-05-28T01:10:38;24.65;;;11.15;;
60851;SDS011;48553;50.766;2.900;2023-05-28T01:13:38;30.15;;;10.65;;
60851;SDS011;48553;50.766;2.900;2023-05-28T01:16:40;25.77;;;11.23;;
60851;SDS011;48553;50.766;2.900;2023-05-28T01:19:41;30.55;;;11.73;;
60851;SDS011;48553;50.766;2.900;2023-05-28T01:22:45;28.35;;;12.20;;
60851;SDS011;48553;50.766;2.900;2023-05-28T01:25:52;32.78;;;12.02;;
60851;SDS011;48553;50.766;2.900;2023-05-28T01:28:53;30.15;;;11.80;;
60851;SDS011;48553;50.766;2.900;2023-05-28T01:31:54;27.17;;;12.25;;
60851;SDS011;48553;50.766;2.900;2023-05-28T01:34:55;28.38;;;11.35;;
60851;SDS011;48553;50.766;2.900;2023-05-28T01:37:55;30.10;;;11.60;;
60851;SDS011;48553;50.766;2.900;2023-05-28T01:40:59;32.23;;;11.37;;
60851;SDS011;48553;50.766;2.900;2023-05-28T01:44:01;30.45;;;13.25;;
60851;SDS011;48553;50.766;2.900;2023-05-28T01:47:02;28.00;;;11.63;;
60851;SDS011;48553;50.766;2.900;2023-05-28T01:50:03;27.02;;;11.48;;
60851;SDS011;48553;50.766;2.900;2023-05-28T01:53:04;31.05;;;12.43;;
60851;SDS011;48553;50.766;2.900;2023-05-28T01:56:04;27.40;;;11.50;;
60851;SDS011;48553;50.766;2.900;2023-05-28T01:59:05;26.05;;;11.48;;
60851;SDS011;48553;50.766;2.900;2023-05-28T02:02:06;28.05;;;12.00;;
60851;SDS011;48553;50.766;2.900;2023-05-28T02:05:07;25.45;;;11.23;;
60851;SDS011;48553;50.766;2.900;2023-05-28T02:08:08;28.05;;;11.98;;
60851;SDS011;48553;50.766;2.900;2023-05-28T02:11:09;25.85;;;11.63;;
60851;SDS011;48553;50.766;2.900;2023-05-28T02:14:09;28.08;;;10.90;;
60851;SDS011;48553;50.766;2.900;2023-05-28T02:17:14;26.25;;;11.18;;
60851;SDS011;48553;50.766;2.900;2023-05-28T02:20:17;25.92;;;11.23;;
60851;SDS011;48553;50.766;2.900;2023-05-28T02:23:17;25.65;;;11.10;;
60851;SDS011;48553;50.766;2.900;2023-05-28T02:26:18;30.50;;;11.63;;
60851;SDS011;48553;50.766;2.900;2023-05-28T02:29:18;26.50;;;11.07;;
60851;SDS011;48553;50.766;2.900;2023-05-28T02:32:19;26.65;;;11.02;;
60851;SDS011;48553;50.766;2.900;2023-05-28T02:35:19;25.90;;;11.18;;
60851;SDS011;48553;50.766;2.900;2023-05-28T02:38:21;29.67;;;11.57;;
60851;SDS011;48553;50.766;2.900;2023-05-28T02:41:21;26.60;;;12.15;;
60851;SDS011;48553;50.766;2.900;2023-05-28T02:44:22;29.80;;;12.20;;
60851;SDS011;48553;50.766;2.900;2023-05-28T02:47:22;27.17;;;11.65;;
60851;SDS011;48553;50.766;2.900;2023-05-28T02:50:23;29.67;;;12.05;;
60851;SDS011;48553;50.766;2.900;2023-05-28T02:53:23;28.98;;;10.90;;
60851;SDS011;48553;50.766;2.900;2023-05-28T02:56:24;25.58;;;11.15;;
60851;SDS011;48553;50.766;2.900;2023-05-28T02:59:25;27.15;;;11.75;;
60851;SDS011;48553;50.766;2.900;2023-05-28T03:02:25;25.40;;;11.25;;
60851;SDS011;48553;50.766;2.900;2023-05-28T03:05:26;29.35;;;12.40;;
60851;SDS011;48553;50.766;2.900;2023-05-28T03:08:27;30.15;;;12.10;;
60851;SDS011;48553;50.766;2.900;2023-05-28T03:11:27;26.55;;;11.75;;
60851;SDS011;48553;50.766;2.900;2023-05-28T03:14:28;26.33;;;11.82;;
60851;SDS011;48553;50.766;2.900;2023-05-28T03:17:28;26.15;;;11.85;;
60851;SDS011;48553;50.766;2.900;2023-05-28T03:20:29;27.00;;;11.38;;
60851;SDS011;48553;50.766;2.900;2023-05-28T03:23:30;29.92;;;12.40;;
60851;SDS011;48553;50.766;2.900;2023-05-28T03:26:30;25.35;;;11.55;;
60851;SDS011;48553;50.766;2.900;2023-05-28T03:29:31;28.48;;;11.63;;
60851;SDS011;48553;50.766;2.900;2023-05-28T03:32:32;27.13;;;12.07;;
60851;SDS011;48553;50.766;2.900;2023-05-28T03:35:32;27.70;;;11.73;;
60851;SDS011;48553;50.766;2.900;2023-05-28T03:38:32;27.92;;;12.07;;
60851;SDS011;48553;50.766;2.900;2023-05-28T03:41:34;27.55;;;12.48;;
60851;SDS011;48553;50.766;2.900;2023-05-28T03:44:35;25.85;;;12.00;;
60851;SDS011;48553;50.766;2.900;2023-05-28T03:47:35;27.55;;;12.05;;
60851;SDS011;48553;50.766;2.900;2023-05-28T03:50:36;28.30;;;12.48;;
60851;SDS011;48553;50.766;2.900;2023-05-28T03:53:36;26.00;;;12.13;;
60851;SDS011;48553;50.766;2.900;2023-05-28T03:56:37;27.00;;;11.93;;
60851;SDS011;48553;50.766;2.900;2023-05-28T03:59:37;27.70;;;11.90;;
60851;SDS011;48553;50.766;2.900;2023-05-28T04:02:38;27.70;;;11.90;;
60851;SDS011;48553;50.766;2.900;2023-05-28T04:05:38;26.70;;;12.32;;
60851;SDS011;48553;50.766;2.900;2023-05-28T04:08:39;26.50;;;11.55;;
60851;SDS011;48553;50.766;2.900;2023-05-28T04:11:40;28.33;;;11.55;;
60851;SDS011;48553;50.766;2.900;2023-05-28T04:14:40;24.63;;;11.93;;
60851;SDS011;48553;50.766;2.900;2023-05-28T04:17:41;29.98;;;12.40;;
60851;SDS011;48553;50.766;2.900;2023-05-28T04:20:42;28.48;;;11.98;;
60851;SDS011;48553;50.766;2.900;2023-05-28T04:23:42;29.55;;;12.30;;
60851;SDS011;48553;50.766;2.900;2023-05-28T04:26:43;31.15;;;12.75;;
60851;SDS011;48553;50.766;2.900;2023-05-28T04:29:43;27.60;;;12.75;;
60851;SDS011;48553;50.766;2.900;2023-05-28T04:32:45;27.58;;;12.55;;
60851;SDS011;48553;50.766;2.900;2023-05-28T04:35:46;26.80;;;12.20;;
60851;SDS011;48553;50.766;2.900;2023-05-28T04:38:47;28.48;;;12.50;;
60851;SDS011;48553;50.766;2.900;2023-05-28T04:41:48;27.67;;;13.18;;
60851;SDS011;48553;50.766;2.900;2023-05-28T04:44:49;30.02;;;13.02;;
60851;SDS011;48553;50.766;2.900;2023-05-28T04:47:53;27.58;;;13.00;;
60851;SDS011;48553;50.766;2.900;2023-05-28T04:50:54;33.85;;;13.60;;
60851;SDS011;48553;50.766;2.900;2023-05-28T04:53:54;33.08;;;13.48;;
60851;SDS011;48553;50.766;2.900;2023-05-28T04:56:54;36.35;;;14.23;;
60851;SDS011;48553;50.766;2.900;2023-05-28T04:59:55;33.28;;;14.50;;
60851;SDS011;48553;50.766;2.900;2023-05-28T05:02:56;31.58;;;14.05;;
60851;SDS011;48553;50.766;2.900;2023-05-28T05:05:57;32.53;;;14.25;;
60851;SDS011;48553;50.766;2.900;2023-05-28T05:08:58;32.50;;;14.13;;
60851;SDS011;48553;50.766;2.900;2023-05-28T05:11:59;31.30;;;13.85;;
60851;SDS011;48553;50.766;2.900;2023-05-28T05:14:59;32.63;;;14.05;;
60851;SDS011;48553;50.766;2.900;2023-05-28T05:18:00;32.17;;;13.73;;
60851;SDS011;48553;50.766;2.900;2023-05-28T05:21:00;29.88;;;13.50;;
60851;SDS011;48553;50.766;2.900;2023-05-28T05:24:01;35.78;;;14.65;;
60851;SDS011;48553;50.766;2.900;2023-05-28T05:27:02;36.83;;;15.07;;
60851;SDS011;48553;50.766;2.900;2023-05-28T05:30:03;37.65;;;15.55;;
60851;SDS011;48553;50.766;2.900;2023-05-28T05:33:04;35.78;;;14.93;;
60851;SDS011;48553;50.766;2.900;2023-05-28T05:36:05;43.97;;;16.75;;
60851;SDS011;48553;50.766;2.900;2023-05-28T05:39:06;39.40;;;16.42;;
60851;SDS011;48553;50.766;2.900;2023-05-28T05:42:06;42.63;;;17.17;;
60851;SDS011;48553;50.766;2.900;2023-05-28T05:45:07;47.80;;;19.13;;
60851;SDS011;48553;50.766;2.900;2023-05-28T05:48:09;43.65;;;17.65;;
60851;SDS011;48553;50.766;2.900;2023-05-28T05:51:10;50.92;;;18.70;;
60851;SDS011;48553;50.766;2.900;2023-05-28T05:54:17;48.28;;;19.17;;
60851;SDS011;48553;50.766;2.900;2023-05-28T05:57:18;52.63;;;20.13;;
60851;SDS011;48553;50.766;2.900;2023-05-28T06:00:18;53.55;;;21.02;;
60851;SDS011;48553;50.766;2.900;2023-05-28T06:03:18;53.70;;;20.38;;
60851;SDS011;48553;50.766;2.900;2023-05-28T06:06:19;52.33;;;20.27;;
60851;SDS011;48553;50.766;2.900;2023-05-28T06:09:19;50.22;;;20.70;;
60851;SDS011;48553;50.766;2.900;2023-05-28T06:12:20;54.63;;;21.27;;
60851;SDS011;48553;50.766;2.900;2023-05-28T06:15:20;53.28;;;21.50;;
60851;SDS011;48553;50.766;2.900;2023-05-28T06:18:21;53.72;;;21.10;;
60851;SDS011;48553;50.766;2.900;2023-05-28T06:21:23;53.45;;;20.40;;
60851;SDS011;48553;50.766;2.900;2023-05-28T06:24:24;53.38;;;21.30;;
60851;SDS011;48553;50.766;2.900;2023-05-28T06:27:25;51.47;;;21.60;;
60851;SDS011;48553;50.766;2.900;2023-05-28T06:30:25;50.97;;;21.67;;
60851;SDS011;48553;50.766;2.900;2023-05-28T06:33:26;57.25;;;21.52;;
60851;SDS011;48553;50.766;2.900;2023-05-28T06:36:26;55.25;;;21.55;;
60851;SDS011;48553;50.766;2.900;2023-05-28T06:39:27;51.35;;;21.02;;
60851;SDS011;48553;50.766;2.900;2023-05-28T06:42:27;48.70;;;21.83;;
60851;SDS011;48553;50.766;2.900;2023-05-28T06:45:28;48.58;;;20.67;;
60851;SDS011;48553;50.766;2.900;2023-05-28T06:48:28;46.03;;;20.33;;
60851;SDS011;48553;50.766;2.900;2023-05-28T06:51:29;42.80;;;18.88;;
60851;SDS011;48553;50.766;2.900;2023-05-28T06:54:29;38.80;;;18.83;;
60851;SDS011;48553;50.766;2.900;2023-05-28T06:57:31;42.53;;;20.20;;
60851;SDS011;48553;50.766;2.900;2023-05-28T07:00:32;44.75;;;19.02;;
60851;SDS011;48553;50.766;2.900;2023-05-28T07:03:33;37.33;;;17.48;;
60851;SDS011;48553;50.766;2.900;2023-05-28T07:06:35;38.75;;;17.17;;
60851;SDS011;48553;50.766;2.900;2023-05-28T07:09:35;37.95;;;17.60;;
60851;SDS011;48553;50.766;2.900;2023-05-28T07:12:36;41.90;;;17.73;;
60851;SDS011;48553;50.766;2.900;2023-05-28T07:15:37;36.47;;;16.67;;
60851;SDS011;48553;50.766;2.900;2023-05-28T07:18:38;35.03;;;16.58;;
60851;SDS011;48553;50.766;2.900;2023-05-28T07:21:38;34.80;;;16.17;;
60851;SDS011;48553;50.766;2.900;2023-05-28T07:24:39;32.38;;;15.77;;
60851;SDS011;48553;50.766;2.900;2023-05-28T07:27:39;34.17;;;15.82;;
60851;SDS011;48553;50.766;2.900;2023-05-28T07:30:43;36.45;;;14.80;;
60851;SDS011;48553;50.766;2.900;2023-05-28T07:33:43;31.75;;;14.63;;
60851;SDS011;48553;50.766;2.900;2023-05-28T07:36:44;31.70;;;15.55;;
60851;SDS011;48553;50.766;2.900;2023-05-28T07:39:44;32.55;;;14.95;;
60851;SDS011;48553;50.766;2.900;2023-05-28T07:42:45;29.63;;;13.60;;
60851;SDS011;48553;50.766;2.900;2023-05-28T07:45:45;30.58;;;14.18;;
60851;SDS011;48553;50.766;2.900;2023-05-28T07:48:46;32.85;;;13.50;;
60851;SDS011;48553;50.766;2.900;2023-05-28T07:51:46;32.17;;;15.23;;
60851;SDS011;48553;50.766;2.900;2023-05-28T07:54:46;30.95;;;13.88;;
60851;SDS011;48553;50.766;2.900;2023-05-28T07:57:47;28.88;;;13.32;;
60851;SDS011;48553;50.766;2.900;2023-05-28T08:00:47;29.58;;;12.88;;
60851;SDS011;48553;50.766;2.900;2023-05-28T08:03:48;33.50;;;15.90;;
60851;SDS011;48553;50.766;2.900;2023-05-28T08:06:51;25.90;;;12.43;;
60851;SDS011;48553;50.766;2.900;2023-05-28T08:09:51;28.83;;;13.95;;
60851;SDS011;48553;50.766;2.900;2023-05-28T08:12:51;24.80;;;11.85;;
60851;SDS011;48553;50.766;2.900;2023-05-28T08:15:52;23.83;;;12.05;;
60851;SDS011;48553;50.766;2.900;2023-05-28T08:18:52;22.23;;;10.18;;
60851;SDS011;48553;50.766;2.900;2023-05-28T08:21:53;25.92;;;11.93;;
60851;SDS011;48553;50.766;2.900;2023-05-28T08:24:53;22.20;;;10.90;;
60851;SDS011;48553;50.766;2.900;2023-05-28T08:27:54;21.88;;;10.50;;
60851;SDS011;48553;50.766;2.900;2023-05-28T08:30:54;18.65;;;9.82;;
60851;SDS011;48553;50.766;2.900;2023-05-28T08:33:55;23.17;;;9.52;;
60851;SDS011;48553;50.766;2.900;2023-05-28T08:36:55;19.67;;;9.18;;
60851;SDS011;48553;50.766;2.900;2023-05-28T08:39:56;20.00;;;8.82;;
60851;SDS011;48553;50.766;2.900;2023-05-28T08:42:56;22.90;;;8.85;;
60851;SDS011;48553;50.766;2.900;2023-05-28T08:45:57;18.73;;;8.52;;
60851;SDS011;48553;50.766;2.900;2023-05-28T08:48:58;19.05;;;8.45;;
60851;SDS011;48553;50.766;2.900;2023-05-28T08:51:59;17.30;;;8.18;;
60851;SDS011;48553;50.766;2.900;2023-05-28T08:55:02;19.42;;;8.98;;
60851;SDS011;48553;50.766;2.900;2023-05-28T08:58:03;18.30;;;7.47;;
60851;SDS011;48553;50.766;2.900;2023-05-28T09:01:10;17.67;;;7.57;;
60851;SDS011;48553;50.766;2.900;2023-05-28T09:04:10;16.33;;;8.05;;
60851;SDS011;48553;50.766;2.900;2023-05-28T09:07:10;16.05;;;7.20;;
60851;SDS011;48553;50.766;2.900;2023-05-28T09:10:11;14.40;;;7.20;;
60851;SDS011;48553;50.766;2.900;2023-05-28T09:13:12;14.02;;;6.68;;
60851;SDS011;48553;50.766;2.900;2023-05-28T09:16:19;15.25;;;6.32;;
60851;SDS011;48553;50.766;2.900;2023-05-28T09:19:24;15.48;;;7.90;;
60851;SDS011;48553;50.766;2.900;2023-05-28T09:22:26;13.48;;;5.63;;
60851;SDS011;48553;50.766;2.900;2023-05-28T09:25:27;16.98;;;7.65;;
60851;SDS011;48553;50.766;2.900;2023-05-28T09:28:30;12.77;;;5.53;;
60851;SDS011;48553;50.766;2.900;2023-05-28T09:31:30;20.35;;;13.60;;
60851;SDS011;48553;50.766;2.900;2023-05-28T09:34:33;21.48;;;12.82;;
60851;SDS011;48553;50.766;2.900;2023-05-28T09:37:34;18.73;;;10.85;;
60851;SDS011;48553;50.766;2.900;2023-05-28T09:40:43;12.25;;;5.63;;
60851;SDS011;48553;50.766;2.900;2023-05-28T09:43:44;11.75;;;5.20;;
60851;SDS011;48553;50.766;2.900;2023-05-28T09:46:45;18.10;;;8.90;;
60851;SDS011;48553;50.766;2.900;2023-05-28T09:49:47;12.85;;;6.35;;
60851;SDS011;48553;50.766;2.900;2023-05-28T09:52:48;18.25;;;9.32;;
60851;SDS011;48553;50.766;2.900;2023-05-28T09:55:49;16.17;;;7.88;;
60851;SDS011;48553;50.766;2.900;2023-05-28T09:58:50;19.45;;;10.00;;
60851;SDS011;48553;50.766;2.900;2023-05-28T10:01:56;18.65;;;9.15;;
60851;SDS011;48553;50.766;2.900;2023-05-28T10:05:02;13.35;;;5.00;;
60851;SDS011;48553;50.766;2.900;2023-05-28T10:08:07;14.82;;;7.90;;
60851;SDS011;48553;50.766;2.900;2023-05-28T10:14:15;31.35;;;19.00;;
60851;SDS011;48553;50.766;2.900;2023-05-28T10:17:16;31.50;;;19.10;;
60851;SDS011;48553;50.766;2.900;2023-05-28T10:20:17;17.40;;;8.88;;
60851;SDS011;48553;50.766;2.900;2023-05-28T10:23:18;23.75;;;16.50;;
60851;SDS011;48553;50.766;2.900;2023-05-28T10:26:21;18.45;;;6.90;;
60851;SDS011;48553;50.766;2.900;2023-05-28T10:29:22;25.35;;;17.38;;
60851;SDS011;48553;50.766;2.900;2023-05-28T10:32:22;35.63;;;24.98;;
60851;SDS011;48553;50.766;2.900;2023-05-28T10:35:23;19.23;;;10.40;;
60851;SDS011;48553;50.766;2.900;2023-05-28T10:38:23;15.65;;;7.30;;
60851;SDS011;48553;50.766;2.900;2023-05-28T10:41:25;22.52;;;14.80;;
60851;SDS011;48553;50.766;2.900;2023-05-28T10:47:53;20.25;;;12.13;;
60851;SDS011;48553;50.766;2.900;2023-05-28T10:50:57;28.27;;;18.15;;
60851;SDS011;48553;50.766;2.900;2023-05-28T10:54:11;19.40;;;11.68;;
60851;SDS011;48553;50.766;2.900;2023-05-28T10:57:14;18.83;;;11.38;;
60851;SDS011;48553;50.766;2.900;2023-05-28T11:00:22;25.42;;;15.48;;
60851;SDS011;48553;50.766;2.900;2023-05-28T11:03:43;13.95;;;8.00;;
60851;SDS011;48553;50.766;2.900;2023-05-28T11:06:45;21.67;;;14.35;;
60851;SDS011;48553;50.766;2.900;2023-05-28T11:09:49;24.45;;;15.20;;
60851;SDS011;48553;50.766;2.900;2023-05-28T11:12:51;29.95;;;19.83;;
60851;SDS011;48553;50.766;2.900;2023-05-28T11:15:52;20.73;;;13.90;;
60851;SDS011;48553;50.766;2.900;2023-05-28T11:19:06;30.10;;;20.08;;
60851;SDS011;48553;50.766;2.900;2023-05-28T11:22:09;23.67;;;14.55;;
60851;SDS011;48553;50.766;2.900;2023-05-28T11:25:11;21.08;;;12.35;;
60851;SDS011;48553;50.766;2.900;2023-05-28T11:28:12;21.63;;;11.52;;
60851;SDS011;48553;50.766;2.900;2023-05-28T11:31:13;29.02;;;17.48;;
60851;SDS011;48553;50.766;2.900;2023-05-28T11:34:13;16.92;;;9.80;;
60851;SDS011;48553;50.766;2.900;2023-05-28T11:37:14;25.05;;;16.23;;
60851;SDS011;48553;50.766;2.900;2023-05-28T11:40:15;37.55;;;21.98;;
60851;SDS011;48553;50.766;2.900;2023-05-28T11:43:16;16.00;;;8.20;;
60851;SDS011;48553;50.766;2.900;2023-05-28T11:46:16;24.05;;;14.05;;
60851;SDS011;48553;50.766;2.900;2023-05-28T11:49:17;16.13;;;9.90;;
60851;SDS011;48553;50.766;2.900;2023-05-28T11:52:21;14.60;;;6.00;;
60851;SDS011;48553;50.766;2.900;2023-05-28T11:55:23;20.45;;;9.75;;
60851;SDS011;48553;50.766;2.900;2023-05-28T11:58:30;23.92;;;12.73;;
60851;SDS011;48553;50.766;2.900;2023-05-28T12:01:31;18.33;;;11.45;;
60851;SDS011;48553;50.766;2.900;2023-05-28T12:04:34;22.95;;;14.85;;
60851;SDS011;48553;50.766;2.900;2023-05-28T12:07:34;17.23;;;8.85;;
60851;SDS011;48553;50.766;2.900;2023-05-28T12:10:36;56.60;;;33.72;;
60851;SDS011;48553;50.766;2.900;2023-05-28T12:13:37;15.27;;;9.43;;
60851;SDS011;48553;50.766;2.900;2023-05-28T12:16:42;16.30;;;8.35;;
60851;SDS011;48553;50.766;2.900;2023-05-28T12:19:48;13.85;;;8.80;;
60851;SDS011;48553;50.766;2.900;2023-05-28T12:26:11;20.70;;;13.50;;
60851;SDS011;48553;50.766;2.900;2023-05-28T12:29:15;17.13;;;11.95;;
60851;SDS011;48553;50.766;2.900;2023-05-28T12:32:15;19.67;;;13.50;;
60851;SDS011;48553;50.766;2.900;2023-05-28T12:35:16;15.45;;;10.27;;
60851;SDS011;48553;50.766;2.900;2023-05-28T12:38:17;17.42;;;10.38;;
60851;SDS011;48553;50.766;2.900;2023-05-28T12:41:18;14.82;;;9.13;;
60851;SDS011;48553;50.766;2.900;2023-05-28T12:44:19;11.60;;;6.95;;
60851;SDS011;48553;50.766;2.900;2023-05-28T12:47:19;17.73;;;9.25;;
60851;SDS011;48553;50.766;2.900;2023-05-28T12:50:21;15.60;;;9.27;;
60851;SDS011;48553;50.766;2.900;2023-05-28T12:53:23;14.80;;;8.82;;
60851;SDS011;48553;50.766;2.900;2023-05-28T12:56:24;16.45;;;10.40;;
60851;SDS011;48553;50.766;2.900;2023-05-28T12:59:26;20.95;;;13.65;;
60851;SDS011;48553;50.766;2.900;2023-05-28T13:02:28;12.85;;;7.38;;
60851;SDS011;48553;50.766;2.900;2023-05-28T13:05:28;45.05;;;30.13;;
60851;SDS011;48553;50.766;2.900;2023-05-28T13:08:33;16.15;;;7.93;;
60851;SDS011;48553;50.766;2.900;2023-05-28T13:11:33;20.73;;;11.18;;
60851;SDS011;48553;50.766;2.900;2023-05-28T13:14:33;12.93;;;7.38;;
60851;SDS011;48553;50.766;2.900;2023-05-28T13:17:34;16.10;;;8.05;;
60851;SDS011;48553;50.766;2.900;2023-05-28T13:20:34;22.65;;;13.40;;
60851;SDS011;48553;50.766;2.900;2023-05-28T13:23:35;17.60;;;8.13;;
60851;SDS011;48553;50.766;2.900;2023-05-28T13:26:36;29.80;;;21.65;;
60851;SDS011;48553;50.766;2.900;2023-05-28T13:29:36;12.77;;;6.78;;
60851;SDS011;48553;50.766;2.900;2023-05-28T13:32:36;10.60;;;5.32;;
60851;SDS011;48553;50.766;2.900;2023-05-28T13:35:37;18.20;;;8.05;;
60851;SDS011;48553;50.766;2.900;2023-05-28T13:38:39;12.68;;;6.57;;
60851;SDS011;48553;50.766;2.900;2023-05-28T13:41:41;17.08;;;9.75;;
60851;SDS011;48553;50.766;2.900;2023-05-28T13:44:42;16.67;;;8.95;;
60851;SDS011;48553;50.766;2.900;2023-05-28T13:47:42;24.70;;;13.00;;
60851;SDS011;48553;50.766;2.900;2023-05-28T13:50:43;21.13;;;10.65;;
60851;SDS011;48553;50.766;2.900;2023-05-28T13:53:43;25.38;;;15.63;;
60851;SDS011;48553;50.766;2.900;2023-05-28T13:56:46;27.55;;;18.40;;
60851;SDS011;48553;50.766;2.900;2023-05-28T13:59:46;30.95;;;21.55;;
60851;SDS011;48553;50.766;2.900;2023-05-28T14:02:47;20.95;;;10.57;;
60851;SDS011;48553;50.766;2.900;2023-05-28T14:05:48;25.50;;;14.90;;
60851;SDS011;48553;50.766;2.900;2023-05-28T14:08:49;14.88;;;7.50;;
60851;SDS011;48553;50.766;2.900;2023-05-28T14:11:49;18.45;;;6.47;;
60851;SDS011;48553;50.766;2.900;2023-05-28T14:14:50;23.10;;;10.93;;
60851;SDS011;48553;50.766;2.900;2023-05-28T14:17:50;17.42;;;7.30;;
60851;SDS011;48553;50.766;2.900;2023-05-28T14:20:50;18.67;;;9.80;;
60851;SDS011;48553;50.766;2.900;2023-05-28T14:23:51;16.10;;;6.93;;
60851;SDS011;48553;50.766;2.900;2023-05-28T14:26:51;36.80;;;29.05;;
60851;SDS011;48553;50.766;2.900;2023-05-28T14:29:52;13.90;;;6.63;;
60851;SDS011;48553;50.766;2.900;2023-05-28T14:32:52;13.52;;;5.53;;
60851;SDS011;48553;50.766;2.900;2023-05-28T14:35:53;19.27;;;8.43;;
60851;SDS011;48553;50.766;2.900;2023-05-28T14:38:54;42.63;;;29.20;;
60851;SDS011;48553;50.766;2.900;2023-05-28T14:41:54;51.35;;;32.90;;
60851;SDS011;48553;50.766;2.900;2023-05-28T14:44:54;32.17;;;17.63;;
60851;SDS011;48553;50.766;2.900;2023-05-28T14:47:55;21.45;;;12.30;;
60851;SDS011;48553;50.766;2.900;2023-05-28T14:50:56;45.42;;;25.98;;
60851;SDS011;48553;50.766;2.900;2023-05-28T14:53:57;51.10;;;30.50;;
60851;SDS011;48553;50.766;2.900;2023-05-28T14:56:57;39.88;;;26.88;;
60851;SDS011;48553;50.766;2.900;2023-05-28T15:00:02;31.63;;;20.60;;
60851;SDS011;48553;50.766;2.900;2023-05-28T15:03:06;53.60;;;32.95;;
60851;SDS011;48553;50.766;2.900;2023-05-28T15:06:07;14.05;;;6.10;;
60851;SDS011;48553;50.766;2.900;2023-05-28T15:09:07;25.10;;;12.23;;
60851;SDS011;48553;50.766;2.900;2023-05-28T15:12:08;32.67;;;18.02;;
60851;SDS011;48553;50.766;2.900;2023-05-28T15:15:11;17.80;;;9.25;;
60851;SDS011;48553;50.766;2.900;2023-05-28T15:18:12;18.00;;;7.78;;
60851;SDS011;48553;50.766;2.900;2023-05-28T15:21:12;24.35;;;12.05;;
60851;SDS011;48553;50.766;2.900;2023-05-28T15:24:12;25.83;;;15.82;;
60851;SDS011;48553;50.766;2.900;2023-05-28T15:27:13;29.20;;;15.93;;
60851;SDS011;48553;50.766;2.900;2023-05-28T15:30:14;20.80;;;9.50;;
60851;SDS011;48553;50.766;2.900;2023-05-28T15:33:15;28.40;;;15.00;;
60851;SDS011;48553;50.766;2.900;2023-05-28T15:36:16;16.92;;;7.00;;
60851;SDS011;48553;50.766;2.900;2023-05-28T15:39:17;20.33;;;10.15;;
60851;SDS011;48553;50.766;2.900;2023-05-28T15:42:18;21.38;;;10.60;;
60851;SDS011;48553;50.766;2.900;2023-05-28T15:45:18;28.90;;;15.50;;
60851;SDS011;48553;50.766;2.900;2023-05-28T15:48:20;22.27;;;8.93;;
60851;SDS011;48553;50.766;2.900;2023-05-28T15:51:20;25.52;;;12.25;;
60851;SDS011;48553;50.766;2.900;2023-05-28T15:54:21;28.73;;;16.10;;
60851;SDS011;48553;50.766;2.900;2023-05-28T15:57:21;29.67;;;18.63;;
60851;SDS011;48553;50.766;2.900;2023-05-28T16:00:22;22.75;;;12.38;;
60851;SDS011;48553;50.766;2.900;2023-05-28T16:03:23;38.25;;;24.05;;
60851;SDS011;48553;50.766;2.900;2023-05-28T16:06:25;17.10;;;9.45;;
60851;SDS011;48553;50.766;2.900;2023-05-28T16:09:26;33.60;;;17.85;;
60851;SDS011;48553;50.766;2.900;2023-05-28T16:12:27;23.98;;;12.40;;
60851;SDS011;48553;50.766;2.900;2023-05-28T16:15:31;39.17;;;20.23;;
60851;SDS011;48553;50.766;2.900;2023-05-28T16:18:34;21.67;;;10.68;;
60851;SDS011;48553;50.766;2.900;2023-05-28T16:21:35;37.63;;;21.55;;
60851;SDS011;48553;50.766;2.900;2023-05-28T16:24:36;33.83;;;19.77;;
60851;SDS011;48553;50.766;2.900;2023-05-28T16:27:36;19.13;;;9.23;;
60851;SDS011;48553;50.766;2.900;2023-05-28T16:30:37;33.83;;;16.70;;
60851;SDS011;48553;50.766;2.900;2023-05-28T16:33:38;32.60;;;14.38;;
60851;SDS011;48553;50.766;2.900;2023-05-28T16:36:38;34.70;;;18.60;;
60851;SDS011;48553;50.766;2.900;2023-05-28T16:39:39;41.00;;;20.45;;
60851;SDS011;48553;50.766;2.900;2023-05-28T16:42:40;30.93;;;16.30;;
60851;SDS011;48553;50.766;2.900;2023-05-28T16:45:42;13.70;;;7.20;;
60851;SDS011;48553;50.766;2.900;2023-05-28T16:48:43;22.35;;;10.20;;
60851;SDS011;48553;50.766;2.900;2023-05-28T16:51:44;20.90;;;10.05;;
60851;SDS011;48553;50.766;2.900;2023-05-28T16:54:45;30.00;;;15.65;;
60851;SDS011;48553;50.766;2.900;2023-05-28T16:57:48;17.73;;;6.85;;
60851;SDS011;48553;50.766;2.900;2023-05-28T17:00:48;19.05;;;6.60;;
60851;SDS011;48553;50.766;2.900;2023-05-28T17:03:49;16.48;;;6.90;;
60851;SDS011;48553;50.766;2.900;2023-05-28T17:06:52;14.75;;;7.15;;
60851;SDS011;48553;50.766;2.900;2023-05-28T17:09:55;18.48;;;8.93;;
60851;SDS011;48553;50.766;2.900;2023-05-28T17:12:56;15.32;;;7.18;;
60851;SDS011;48553;50.766;2.900;2023-05-28T17:15:56;14.77;;;7.70;;
60851;SDS011;48553;50.766;2.900;2023-05-28T17:18:57;14.45;;;7.13;;
60851;SDS011;48553;50.766;2.900;2023-05-28T17:21:57;15.45;;;6.20;;
60851;SDS011;48553;50.766;2.900;2023-05-28T17:24:57;15.77;;;5.65;;
60851;SDS011;48553;50.766;2.900;2023-05-28T17:27:58;14.05;;;5.35;;
60851;SDS011;48553;50.766;2.900;2023-05-28T17:30:58;9.73;;;5.20;;
60851;SDS011;48553;50.766;2.900;2023-05-28T17:33:59;12.00;;;4.68;;
60851;SDS011;48553;50.766;2.900;2023-05-28T17:37:00;12.60;;;4.70;;
60851;SDS011;48553;50.766;2.900;2023-05-28T17:40:00;15.57;;;4.53;;
60851;SDS011;48553;50.766;2.900;2023-05-28T17:43:01;12.52;;;4.70;;
60851;SDS011;48553;50.766;2.900;2023-05-28T17:46:01;10.60;;;3.75;;
60851;SDS011;48553;50.766;2.900;2023-05-28T17:49:03;13.25;;;4.03;;
60851;SDS011;48553;50.766;2.900;2023-05-28T17:52:03;10.60;;;3.70;;
60851;SDS011;48553;50.766;2.900;2023-05-28T17:55:04;10.63;;;3.60;;